sensor_id;sensor_type;location;lat;lon;timestamp;P1;durP1;ratioP1;P2;durP2;ratioP2
11496;SDS011;5805;51.542;7.230;2022-08-25T00:01:50;3.65;;;2.40;;
11496;SDS011;5805;51.542;7.230;2022-08-25T00:04:17;3.20;;;2.42;;
11496;SDS011;5805;51.542;7.230;2022-08-25T00:06:45;4.95;;;2.53;;
11496;SDS011;5805;51.542;7.230;2022-08-25T00:09:13;5.05;;;2.72;;
11496;SDS011;5805;51.542;7.230;2022-08-25T00:11:42;2.47;;;2.15;;
11496;SDS011;5805;51.542;7.230;2022-08-25T00:14:09;3.20;;;2.28;;
11496;SDS011;5805;51.542;7.230;2022-08-25T00:16:36;2.58;;;2.30;;
11496;SDS011;5805;51.542;7.230;2022-08-25T00:19:04;4.13;;;2.35;;
11496;SDS011;5805;51.542;7.230;2022-08-25T00:21:32;5.28;;;2.42;;
11496;SDS011;5805;51.542;7.230;2022-08-25T00:23:58;4.65;;;2.72;;
11496;SDS011;5805;51.542;7.230;2022-08-25T00:26:25;5.30;;;2.72;;
11496;SDS011;5805;51.542;7.230;2022-08-25T00:28:52;2.75;;;2.10;;
11496;SDS011;5805;51.542;7.230;2022-08-25T00:31:19;2.60;;;2.40;;
11496;SDS011;5805;51.542;7.230;2022-08-25T00:33:45;4.70;;;2.28;;
11496;SDS011;5805;51.542;7.230;2022-08-25T00:36:12;3.80;;;2.47;;
11496;SDS011;5805;51.542;7.230;2022-08-25T00:38:38;3.13;;;2.33;;
11496;SDS011;5805;51.542;7.230;2022-08-25T00:41:04;6.65;;;2.67;;
11496;SDS011;5805;51.542;7.230;2022-08-25T00:43:32;6.22;;;2.60;;
11496;SDS011;5805;51.542;7.230;2022-08-25T00:46:00;5.97;;;2.50;;
11496;SDS011;5805;51.542;7.230;2022-08-25T00:48:26;3.28;;;2.35;;
11496;SDS011;5805;51.542;7.230;2022-08-25T00:50:52;4.60;;;2.63;;
11496;SDS011;5805;51.542;7.230;2022-08-25T00:53:17;4.32;;;2.80;;
11496;SDS011;5805;51.542;7.230;2022-08-25T00:55:43;2.90;;;2.20;;
11496;SDS011;5805;51.542;7.230;2022-08-25T00:58:10;5.07;;;2.60;;
11496;SDS011;5805;51.542;7.230;2022-08-25T01:00:44;8.68;;;2.70;;
11496;SDS011;5805;51.542;7.230;2022-08-25T01:03:14;3.95;;;2.40;;
11496;SDS011;5805;51.542;7.230;2022-08-25T01:05:40;3.10;;;2.30;;
11496;SDS011;5805;51.542;7.230;2022-08-25T01:08:07;6.00;;;2.35;;
11496;SDS011;5805;51.542;7.230;2022-08-25T01:10:34;3.63;;;2.72;;
11496;SDS011;5805;51.542;7.230;2022-08-25T01:13:03;4.60;;;2.78;;
11496;SDS011;5805;51.542;7.230;2022-08-25T01:15:33;3.63;;;2.45;;
11496;SDS011;5805;51.542;7.230;2022-08-25T01:17:59;3.13;;;2.10;;
11496;SDS011;5805;51.542;7.230;2022-08-25T01:20:28;7.53;;;2.38;;
11496;SDS011;5805;51.542;7.230;2022-08-25T01:22:57;2.95;;;2.45;;
11496;SDS011;5805;51.542;7.230;2022-08-25T01:25:26;4.13;;;2.65;;
11496;SDS011;5805;51.542;7.230;2022-08-25T01:27:59;2.72;;;2.00;;
11496;SDS011;5805;51.542;7.230;2022-08-25T01:30:25;3.63;;;2.33;;
11496;SDS011;5805;51.542;7.230;2022-08-25T01:32:51;4.75;;;2.38;;
11496;SDS011;5805;51.542;7.230;2022-08-25T01:35:16;6.07;;;2.47;;
11496;SDS011;5805;51.542;7.230;2022-08-25T01:37:42;2.30;;;2.10;;
11496;SDS011;5805;51.542;7.230;2022-08-25T01:40:10;3.53;;;2.35;;
11496;SDS011;5805;51.542;7.230;2022-08-25T01:42:37;4.47;;;2.53;;
11496;SDS011;5805;51.542;7.230;2022-08-25T01:45:16;4.82;;;2.30;;
11496;SDS011;5805;51.542;7.230;2022-08-25T01:47:42;5.05;;;2.05;;
11496;SDS011;5805;51.542;7.230;2022-08-25T01:50:08;4.35;;;2.40;;
11496;SDS011;5805;51.542;7.230;2022-08-25T01:52:36;6.97;;;2.58;;
11496;SDS011;5805;51.542;7.230;2022-08-25T01:55:10;4.65;;;2.42;;
11496;SDS011;5805;51.542;7.230;2022-08-25T01:57:36;4.80;;;2.63;;
11496;SDS011;5805;51.542;7.230;2022-08-25T02:00:03;4.07;;;2.50;;
11496;SDS011;5805;51.542;7.230;2022-08-25T02:02:30;5.15;;;2.95;;
11496;SDS011;5805;51.542;7.230;2022-08-25T02:04:55;3.65;;;2.38;;
11496;SDS011;5805;51.542;7.230;2022-08-25T02:07:21;2.80;;;2.30;;
11496;SDS011;5805;51.542;7.230;2022-08-25T02:09:47;5.10;;;2.15;;
11496;SDS011;5805;51.542;7.230;2022-08-25T02:12:14;4.32;;;2.47;;
11496;SDS011;5805;51.542;7.230;2022-08-25T02:14:40;3.42;;;2.50;;
11496;SDS011;5805;51.542;7.230;2022-08-25T02:17:05;2.70;;;2.33;;
11496;SDS011;5805;51.542;7.230;2022-08-25T02:19:31;9.05;;;3.05;;
11496;SDS011;5805;51.542;7.230;2022-08-25T02:21:58;2.85;;;2.50;;
11496;SDS011;5805;51.542;7.230;2022-08-25T02:24:24;4.80;;;2.55;;
11496;SDS011;5805;51.542;7.230;2022-08-25T02:26:50;5.38;;;2.70;;
11496;SDS011;5805;51.542;7.230;2022-08-25T02:29:18;6.70;;;2.83;;
11496;SDS011;5805;51.542;7.230;2022-08-25T02:31:44;7.10;;;2.90;;
11496;SDS011;5805;51.542;7.230;2022-08-25T02:34:10;8.48;;;2.95;;
11496;SDS011;5805;51.542;7.230;2022-08-25T02:36:36;4.07;;;2.22;;
11496;SDS011;5805;51.542;7.230;2022-08-25T02:39:02;2.47;;;2.22;;
11496;SDS011;5805;51.542;7.230;2022-08-25T02:41:29;3.00;;;2.63;;
11496;SDS011;5805;51.542;7.230;2022-08-25T02:43:55;2.70;;;2.50;;
11496;SDS011;5805;51.542;7.230;2022-08-25T02:46:22;3.70;;;2.70;;
11496;SDS011;5805;51.542;7.230;2022-08-25T02:48:48;5.72;;;2.53;;
11496;SDS011;5805;51.542;7.230;2022-08-25T02:51:14;4.93;;;2.47;;
11496;SDS011;5805;51.542;7.230;2022-08-25T02:53:40;3.47;;;2.10;;
11496;SDS011;5805;51.542;7.230;2022-08-25T02:56:07;4.95;;;2.42;;
11496;SDS011;5805;51.542;7.230;2022-08-25T02:58:34;7.47;;;2.33;;
11496;SDS011;5805;51.542;7.230;2022-08-25T03:01:01;6.68;;;2.35;;
11496;SDS011;5805;51.542;7.230;2022-08-25T03:03:28;3.40;;;2.53;;
11496;SDS011;5805;51.542;7.230;2022-08-25T03:05:55;6.53;;;2.92;;
11496;SDS011;5805;51.542;7.230;2022-08-25T03:08:20;3.67;;;2.63;;
11496;SDS011;5805;51.542;7.230;2022-08-25T03:10:46;5.40;;;2.20;;
11496;SDS011;5805;51.542;7.230;2022-08-25T03:13:12;6.03;;;2.28;;
11496;SDS011;5805;51.542;7.230;2022-08-25T03:15:38;5.03;;;2.50;;
11496;SDS011;5805;51.542;7.230;2022-08-25T03:18:04;3.20;;;2.40;;
11496;SDS011;5805;51.542;7.230;2022-08-25T03:20:31;5.35;;;2.63;;
11496;SDS011;5805;51.542;7.230;2022-08-25T03:22:57;7.88;;;2.95;;
11496;SDS011;5805;51.542;7.230;2022-08-25T03:25:22;3.67;;;2.55;;
11496;SDS011;5805;51.542;7.230;2022-08-25T03:27:48;2.90;;;2.60;;
11496;SDS011;5805;51.542;7.230;2022-08-25T03:30:14;4.60;;;2.20;;
11496;SDS011;5805;51.542;7.230;2022-08-25T03:32:40;4.05;;;2.50;;
11496;SDS011;5805;51.542;7.230;2022-08-25T03:35:06;5.25;;;2.78;;
11496;SDS011;5805;51.542;7.230;2022-08-25T03:37:34;4.25;;;2.70;;
11496;SDS011;5805;51.542;7.230;2022-08-25T03:40:00;3.80;;;2.70;;
11496;SDS011;5805;51.542;7.230;2022-08-25T03:42:27;2.60;;;2.22;;
11496;SDS011;5805;51.542;7.230;2022-08-25T03:44:52;6.82;;;2.53;;
11496;SDS011;5805;51.542;7.230;2022-08-25T03:47:18;4.85;;;2.65;;
11496;SDS011;5805;51.542;7.230;2022-08-25T03:49:44;3.90;;;2.67;;
11496;SDS011;5805;51.542;7.230;2022-08-25T03:52:10;6.65;;;2.60;;
11496;SDS011;5805;51.542;7.230;2022-08-25T03:54:37;7.22;;;2.58;;
11496;SDS011;5805;51.542;7.230;2022-08-25T03:57:03;5.13;;;2.50;;
11496;SDS011;5805;51.542;7.230;2022-08-25T03:59:28;3.78;;;2.70;;
11496;SDS011;5805;51.542;7.230;2022-08-25T04:01:54;13.32;;;2.88;;
11496;SDS011;5805;51.542;7.230;2022-08-25T04:04:20;8.85;;;3.38;;
11496;SDS011;5805;51.542;7.230;2022-08-25T04:06:46;5.28;;;2.80;;
11496;SDS011;5805;51.542;7.230;2022-08-25T04:09:12;5.82;;;2.85;;
11496;SDS011;5805;51.542;7.230;2022-08-25T04:11:39;2.80;;;2.28;;
11496;SDS011;5805;51.542;7.230;2022-08-25T04:14:04;2.83;;;2.30;;
11496;SDS011;5805;51.542;7.230;2022-08-25T04:16:31;6.70;;;2.33;;
11496;SDS011;5805;51.542;7.230;2022-08-25T04:18:58;5.63;;;3.13;;
11496;SDS011;5805;51.542;7.230;2022-08-25T04:21:25;3.72;;;2.70;;
11496;SDS011;5805;51.542;7.230;2022-08-25T04:23:52;3.17;;;2.80;;
11496;SDS011;5805;51.542;7.230;2022-08-25T04:26:20;9.73;;;2.83;;
11496;SDS011;5805;51.542;7.230;2022-08-25T04:28:48;5.55;;;2.63;;
11496;SDS011;5805;51.542;7.230;2022-08-25T04:31:15;6.15;;;3.15;;
11496;SDS011;5805;51.542;7.230;2022-08-25T04:33:42;5.30;;;2.60;;
11496;SDS011;5805;51.542;7.230;2022-08-25T04:36:09;4.03;;;2.60;;
11496;SDS011;5805;51.542;7.230;2022-08-25T04:38:35;4.82;;;2.85;;
11496;SDS011;5805;51.542;7.230;2022-08-25T04:41:02;2.92;;;2.72;;
11496;SDS011;5805;51.542;7.230;2022-08-25T04:43:29;3.03;;;2.47;;
11496;SDS011;5805;51.542;7.230;2022-08-25T04:45:57;6.07;;;2.60;;
11496;SDS011;5805;51.542;7.230;2022-08-25T04:48:23;4.65;;;2.60;;
11496;SDS011;5805;51.542;7.230;2022-08-25T04:50:49;3.78;;;3.03;;
11496;SDS011;5805;51.542;7.230;2022-08-25T04:53:15;8.15;;;2.80;;
11496;SDS011;5805;51.542;7.230;2022-08-25T04:55:42;6.20;;;3.00;;
11496;SDS011;5805;51.542;7.230;2022-08-25T04:58:08;4.47;;;2.65;;
11496;SDS011;5805;51.542;7.230;2022-08-25T05:00:34;4.80;;;2.92;;
11496;SDS011;5805;51.542;7.230;2022-08-25T05:03:02;10.07;;;2.97;;
11496;SDS011;5805;51.542;7.230;2022-08-25T05:05:28;7.55;;;2.60;;
11496;SDS011;5805;51.542;7.230;2022-08-25T05:07:54;5.22;;;2.78;;
11496;SDS011;5805;51.542;7.230;2022-08-25T05:10:20;4.15;;;2.67;;
11496;SDS011;5805;51.542;7.230;2022-08-25T05:12:47;6.40;;;2.88;;
11496;SDS011;5805;51.542;7.230;2022-08-25T05:15:13;9.20;;;3.05;;
11496;SDS011;5805;51.542;7.230;2022-08-25T05:17:38;3.20;;;2.90;;
11496;SDS011;5805;51.542;7.230;2022-08-25T05:20:06;3.55;;;2.90;;
11496;SDS011;5805;51.542;7.230;2022-08-25T05:22:32;9.60;;;3.40;;
11496;SDS011;5805;51.542;7.230;2022-08-25T05:24:58;4.57;;;2.80;;
11496;SDS011;5805;51.542;7.230;2022-08-25T05:27:24;5.97;;;2.88;;
11496;SDS011;5805;51.542;7.230;2022-08-25T05:29:49;3.42;;;2.78;;
11496;SDS011;5805;51.542;7.230;2022-08-25T05:32:15;5.82;;;3.15;;
11496;SDS011;5805;51.542;7.230;2022-08-25T05:34:41;6.72;;;3.50;;
11496;SDS011;5805;51.542;7.230;2022-08-25T05:37:08;8.10;;;3.13;;
11496;SDS011;5805;51.542;7.230;2022-08-25T05:39:33;5.75;;;2.92;;
11496;SDS011;5805;51.542;7.230;2022-08-25T05:41:59;3.95;;;2.65;;
11496;SDS011;5805;51.542;7.230;2022-08-25T05:44:25;7.57;;;3.53;;
11496;SDS011;5805;51.542;7.230;2022-08-25T05:46:50;4.70;;;3.00;;
11496;SDS011;5805;51.542;7.230;2022-08-25T05:49:16;3.78;;;3.28;;
11496;SDS011;5805;51.542;7.230;2022-08-25T05:51:42;5.30;;;3.22;;
11496;SDS011;5805;51.542;7.230;2022-08-25T05:54:09;5.55;;;3.00;;
11496;SDS011;5805;51.542;7.230;2022-08-25T05:56:35;7.35;;;3.30;;
11496;SDS011;5805;51.542;7.230;2022-08-25T05:59:00;5.82;;;3.00;;
11496;SDS011;5805;51.542;7.230;2022-08-25T06:01:27;6.50;;;3.55;;
11496;SDS011;5805;51.542;7.230;2022-08-25T06:03:53;5.00;;;2.97;;
11496;SDS011;5805;51.542;7.230;2022-08-25T06:06:19;5.25;;;3.20;;
11496;SDS011;5805;51.542;7.230;2022-08-25T06:08:45;6.13;;;3.00;;
11496;SDS011;5805;51.542;7.230;2022-08-25T06:11:12;6.45;;;2.97;;
11496;SDS011;5805;51.542;7.230;2022-08-25T06:13:39;7.05;;;2.90;;
11496;SDS011;5805;51.542;7.230;2022-08-25T06:16:05;8.55;;;3.15;;
11496;SDS011;5805;51.542;7.230;2022-08-25T06:18:31;8.50;;;3.28;;
11496;SDS011;5805;51.542;7.230;2022-08-25T06:20:57;11.50;;;3.03;;
11496;SDS011;5805;51.542;7.230;2022-08-25T06:23:23;7.95;;;3.20;;
11496;SDS011;5805;51.542;7.230;2022-08-25T06:25:48;5.50;;;3.72;;
11496;SDS011;5805;51.542;7.230;2022-08-25T06:28:16;5.60;;;3.10;;
11496;SDS011;5805;51.542;7.230;2022-08-25T06:30:42;7.38;;;3.10;;
11496;SDS011;5805;51.542;7.230;2022-08-25T06:33:08;4.88;;;3.42;;
11496;SDS011;5805;51.542;7.230;2022-08-25T06:35:33;4.95;;;3.03;;
11496;SDS011;5805;51.542;7.230;2022-08-25T06:37:59;5.50;;;3.10;;
11496;SDS011;5805;51.542;7.230;2022-08-25T06:40:25;4.93;;;3.00;;
11496;SDS011;5805;51.542;7.230;2022-08-25T06:42:51;7.57;;;3.50;;
11496;SDS011;5805;51.542;7.230;2022-08-25T06:45:18;3.88;;;2.90;;
11496;SDS011;5805;51.542;7.230;2022-08-25T06:47:43;9.63;;;2.90;;
11496;SDS011;5805;51.542;7.230;2022-08-25T06:50:09;5.07;;;3.03;;
11496;SDS011;5805;51.542;7.230;2022-08-25T06:52:35;7.35;;;3.20;;
11496;SDS011;5805;51.542;7.230;2022-08-25T06:55:01;5.35;;;3.50;;
11496;SDS011;5805;51.542;7.230;2022-08-25T06:57:27;7.75;;;3.08;;
11496;SDS011;5805;51.542;7.230;2022-08-25T06:59:53;5.63;;;3.38;;
11496;SDS011;5805;51.542;7.230;2022-08-25T07:02:20;7.25;;;3.05;;
11496;SDS011;5805;51.542;7.230;2022-08-25T07:04:46;6.15;;;3.15;;
11496;SDS011;5805;51.542;7.230;2022-08-25T07:07:11;5.50;;;3.10;;
11496;SDS011;5805;51.542;7.230;2022-08-25T07:09:37;9.25;;;3.38;;
11496;SDS011;5805;51.542;7.230;2022-08-25T07:12:03;12.45;;;3.50;;
11496;SDS011;5805;51.542;7.230;2022-08-25T07:14:29;5.63;;;3.00;;
11496;SDS011;5805;51.542;7.230;2022-08-25T07:16:55;5.40;;;2.42;;
11496;SDS011;5805;51.542;7.230;2022-08-25T07:19:22;8.15;;;3.00;;
11496;SDS011;5805;51.542;7.230;2022-08-25T07:21:48;5.40;;;3.00;;
11496;SDS011;5805;51.542;7.230;2022-08-25T07:24:16;3.88;;;2.85;;
11496;SDS011;5805;51.542;7.230;2022-08-25T07:26:42;8.60;;;3.40;;
11496;SDS011;5805;51.542;7.230;2022-08-25T07:29:09;6.80;;;3.33;;
11496;SDS011;5805;51.542;7.230;2022-08-25T07:31:37;4.00;;;3.08;;
11496;SDS011;5805;51.542;7.230;2022-08-25T07:34:03;4.70;;;2.97;;
11496;SDS011;5805;51.542;7.230;2022-08-25T07:36:30;7.40;;;3.42;;
11496;SDS011;5805;51.542;7.230;2022-08-25T07:38:56;3.85;;;3.38;;
11496;SDS011;5805;51.542;7.230;2022-08-25T07:41:22;7.95;;;3.72;;
11496;SDS011;5805;51.542;7.230;2022-08-25T07:43:48;5.20;;;3.17;;
11496;SDS011;5805;51.542;7.230;2022-08-25T07:46:14;6.65;;;3.50;;
11496;SDS011;5805;51.542;7.230;2022-08-25T07:48:40;6.20;;;3.15;;
11496;SDS011;5805;51.542;7.230;2022-08-25T07:51:06;7.22;;;3.50;;
11496;SDS011;5805;51.542;7.230;2022-08-25T07:53:33;5.35;;;3.05;;
11496;SDS011;5805;51.542;7.230;2022-08-25T07:55:59;7.03;;;3.10;;
11496;SDS011;5805;51.542;7.230;2022-08-25T07:58:25;6.60;;;3.15;;
11496;SDS011;5805;51.542;7.230;2022-08-25T08:00:51;6.68;;;3.33;;
11496;SDS011;5805;51.542;7.230;2022-08-25T08:03:16;8.65;;;3.78;;
11496;SDS011;5805;51.542;7.230;2022-08-25T08:05:42;6.15;;;3.53;;
11496;SDS011;5805;51.542;7.230;2022-08-25T08:08:08;8.13;;;3.78;;
11496;SDS011;5805;51.542;7.230;2022-08-25T08:10:35;8.85;;;3.38;;
11496;SDS011;5805;51.542;7.230;2022-08-25T08:13:03;6.00;;;3.78;;
11496;SDS011;5805;51.542;7.230;2022-08-25T08:15:29;8.00;;;3.42;;
11496;SDS011;5805;51.542;7.230;2022-08-25T08:17:55;3.85;;;3.13;;
11496;SDS011;5805;51.542;7.230;2022-08-25T08:20:21;7.30;;;3.78;;
11496;SDS011;5805;51.542;7.230;2022-08-25T08:22:47;4.28;;;3.63;;
11496;SDS011;5805;51.542;7.230;2022-08-25T08:25:12;4.18;;;3.60;;
11496;SDS011;5805;51.542;7.230;2022-08-25T08:27:39;5.15;;;3.40;;
11496;SDS011;5805;51.542;7.230;2022-08-25T08:30:05;7.43;;;3.50;;
11496;SDS011;5805;51.542;7.230;2022-08-25T08:32:32;8.68;;;3.90;;
11496;SDS011;5805;51.542;7.230;2022-08-25T08:34:58;5.57;;;3.35;;
11496;SDS011;5805;51.542;7.230;2022-08-25T08:37:23;7.60;;;3.35;;
11496;SDS011;5805;51.542;7.230;2022-08-25T08:39:49;7.13;;;3.47;;
11496;SDS011;5805;51.542;7.230;2022-08-25T08:42:24;10.38;;;3.92;;
11496;SDS011;5805;51.542;7.230;2022-08-25T08:45:18;4.07;;;3.03;;
11496;SDS011;5805;51.542;7.230;2022-08-25T08:47:52;7.40;;;3.42;;
11496;SDS011;5805;51.542;7.230;2022-08-25T08:50:31;4.97;;;3.80;;
11496;SDS011;5805;51.542;7.230;2022-08-25T08:53:04;7.35;;;3.60;;
11496;SDS011;5805;51.542;7.230;2022-08-25T08:55:34;6.03;;;3.38;;
11496;SDS011;5805;51.542;7.230;2022-08-25T08:58:04;7.78;;;3.35;;
11496;SDS011;5805;51.542;7.230;2022-08-25T09:00:36;6.68;;;3.60;;
11496;SDS011;5805;51.542;7.230;2022-08-25T09:03:06;4.75;;;3.50;;
11496;SDS011;5805;51.542;7.230;2022-08-25T09:05:36;10.27;;;3.97;;
11496;SDS011;5805;51.542;7.230;2022-08-25T09:08:10;7.00;;;3.90;;
11496;SDS011;5805;51.542;7.230;2022-08-25T09:10:39;6.00;;;3.63;;
11496;SDS011;5805;51.542;7.230;2022-08-25T09:13:15;4.18;;;3.15;;
11496;SDS011;5805;51.542;7.230;2022-08-25T09:15:49;7.97;;;3.38;;
11496;SDS011;5805;51.542;7.230;2022-08-25T09:18:22;4.78;;;3.28;;
11496;SDS011;5805;51.542;7.230;2022-08-25T09:20:58;5.70;;;3.28;;
11496;SDS011;5805;51.542;7.230;2022-08-25T09:23:38;5.30;;;3.15;;
11496;SDS011;5805;51.542;7.230;2022-08-25T09:26:17;7.80;;;3.42;;
11496;SDS011;5805;51.542;7.230;2022-08-25T09:28:50;5.97;;;3.58;;
11496;SDS011;5805;51.542;7.230;2022-08-25T09:31:21;8.88;;;3.70;;
11496;SDS011;5805;51.542;7.230;2022-08-25T09:33:48;6.38;;;3.28;;
11496;SDS011;5805;51.542;7.230;2022-08-25T09:36:17;5.63;;;3.05;;
11496;SDS011;5805;51.542;7.230;2022-08-25T09:38:42;7.18;;;3.35;;
11496;SDS011;5805;51.542;7.230;2022-08-25T09:41:08;5.55;;;3.58;;
11496;SDS011;5805;51.542;7.230;2022-08-25T09:43:34;4.35;;;3.72;;
11496;SDS011;5805;51.542;7.230;2022-08-25T09:46:08;7.22;;;3.15;;
11496;SDS011;5805;51.542;7.230;2022-08-25T09:48:43;5.32;;;3.85;;
11496;SDS011;5805;51.542;7.230;2022-08-25T09:51:15;5.80;;;3.28;;
11496;SDS011;5805;51.542;7.230;2022-08-25T09:53:45;5.43;;;3.15;;
11496;SDS011;5805;51.542;7.230;2022-08-25T09:56:15;4.72;;;3.72;;
11496;SDS011;5805;51.542;7.230;2022-08-25T09:58:44;8.32;;;3.70;;
11496;SDS011;5805;51.542;7.230;2022-08-25T10:01:11;5.13;;;3.50;;
11496;SDS011;5805;51.542;7.230;2022-08-25T10:03:53;8.48;;;3.50;;
11496;SDS011;5805;51.542;7.230;2022-08-25T10:06:21;3.65;;;3.30;;
11496;SDS011;5805;51.542;7.230;2022-08-25T10:08:53;4.63;;;3.30;;
11496;SDS011;5805;51.542;7.230;2022-08-25T10:11:30;4.18;;;3.45;;
11496;SDS011;5805;51.542;7.230;2022-08-25T10:14:02;6.00;;;3.45;;
11496;SDS011;5805;51.542;7.230;2022-08-25T10:16:31;6.40;;;3.40;;
11496;SDS011;5805;51.542;7.230;2022-08-25T10:19:04;4.65;;;3.53;;
11496;SDS011;5805;51.542;7.230;2022-08-25T10:21:32;4.57;;;3.55;;
11496;SDS011;5805;51.542;7.230;2022-08-25T10:23:59;7.93;;;3.88;;
11496;SDS011;5805;51.542;7.230;2022-08-25T10:26:27;4.18;;;3.08;;
11496;SDS011;5805;51.542;7.230;2022-08-25T10:29:06;3.97;;;3.40;;
11496;SDS011;5805;51.542;7.230;2022-08-25T10:31:43;5.57;;;2.63;;
11496;SDS011;5805;51.542;7.230;2022-08-25T10:34:18;4.43;;;3.33;;
11496;SDS011;5805;51.542;7.230;2022-08-25T10:36:56;7.15;;;3.50;;
11496;SDS011;5805;51.542;7.230;2022-08-25T10:39:34;9.35;;;3.80;;
11496;SDS011;5805;51.542;7.230;2022-08-25T10:42:07;6.03;;;3.47;;
11496;SDS011;5805;51.542;7.230;2022-08-25T10:44:47;6.90;;;3.95;;
11496;SDS011;5805;51.542;7.230;2022-08-25T10:47:28;5.00;;;3.40;;
11496;SDS011;5805;51.542;7.230;2022-08-25T10:50:12;4.25;;;3.30;;
11496;SDS011;5805;51.542;7.230;2022-08-25T10:53:02;3.70;;;3.20;;
11496;SDS011;5805;51.542;7.230;2022-08-25T10:55:37;3.95;;;3.60;;
11496;SDS011;5805;51.542;7.230;2022-08-25T10:58:08;5.13;;;4.03;;
11496;SDS011;5805;51.542;7.230;2022-08-25T11:00:50;6.47;;;3.60;;
11496;SDS011;5805;51.542;7.230;2022-08-25T11:03:26;7.32;;;4.00;;
11496;SDS011;5805;51.542;7.230;2022-08-25T11:06:03;4.00;;;3.58;;
11496;SDS011;5805;51.542;7.230;2022-08-25T11:08:32;5.80;;;3.75;;
11496;SDS011;5805;51.542;7.230;2022-08-25T11:11:01;4.95;;;3.78;;
11496;SDS011;5805;51.542;7.230;2022-08-25T11:13:34;7.05;;;3.60;;
11496;SDS011;5805;51.542;7.230;2022-08-25T11:16:05;6.07;;;3.72;;
11496;SDS011;5805;51.542;7.230;2022-08-25T11:18:35;5.40;;;4.15;;
11496;SDS011;5805;51.542;7.230;2022-08-25T11:21:10;5.38;;;3.70;;
11496;SDS011;5805;51.542;7.230;2022-08-25T11:23:40;4.07;;;3.40;;
11496;SDS011;5805;51.542;7.230;2022-08-25T11:26:11;7.90;;;3.33;;
11496;SDS011;5805;51.542;7.230;2022-08-25T11:28:43;4.25;;;3.60;;
11496;SDS011;5805;51.542;7.230;2022-08-25T11:31:16;5.80;;;3.95;;
11496;SDS011;5805;51.542;7.230;2022-08-25T11:33:43;6.03;;;3.60;;
11496;SDS011;5805;51.542;7.230;2022-08-25T11:36:11;6.20;;;3.67;;
11496;SDS011;5805;51.542;7.230;2022-08-25T11:38:46;5.22;;;3.60;;
11496;SDS011;5805;51.542;7.230;2022-08-25T11:41:22;5.68;;;3.67;;
11496;SDS011;5805;51.542;7.230;2022-08-25T11:44:03;6.50;;;3.67;;
11496;SDS011;5805;51.542;7.230;2022-08-25T11:46:42;3.40;;;3.10;;
11496;SDS011;5805;51.542;7.230;2022-08-25T11:49:22;4.35;;;3.95;;
11496;SDS011;5805;51.542;7.230;2022-08-25T11:52:02;6.40;;;3.83;;
11496;SDS011;5805;51.542;7.230;2022-08-25T11:54:33;4.57;;;3.47;;
11496;SDS011;5805;51.542;7.230;2022-08-25T11:57:01;4.72;;;3.20;;
11496;SDS011;5805;51.542;7.230;2022-08-25T12:02:27;7.05;;;3.60;;
11496;SDS011;5805;51.542;7.230;2022-08-25T12:04:56;3.92;;;3.05;;
11496;SDS011;5805;51.542;7.230;2022-08-25T12:07:25;4.32;;;3.40;;
11496;SDS011;5805;51.542;7.230;2022-08-25T12:12:57;4.68;;;3.40;;
11496;SDS011;5805;51.542;7.230;2022-08-25T12:15:31;4.03;;;3.63;;
11496;SDS011;5805;51.542;7.230;2022-08-25T12:18:36;7.18;;;3.10;;
11496;SDS011;5805;51.542;7.230;2022-08-25T12:21:07;4.95;;;3.72;;
11496;SDS011;5805;51.542;7.230;2022-08-25T12:23:36;4.65;;;3.53;;
11496;SDS011;5805;51.542;7.230;2022-08-25T12:26:03;4.32;;;3.85;;
11496;SDS011;5805;51.542;7.230;2022-08-25T12:31:34;4.38;;;3.30;;
11496;SDS011;5805;51.542;7.230;2022-08-25T12:34:14;4.88;;;3.13;;
11496;SDS011;5805;51.542;7.230;2022-08-25T12:36:54;6.15;;;3.45;;
11496;SDS011;5805;51.542;7.230;2022-08-25T12:39:27;3.67;;;3.30;;
11496;SDS011;5805;51.542;7.230;2022-08-25T12:41:56;3.83;;;3.45;;
11496;SDS011;5805;51.542;7.230;2022-08-25T12:44:36;4.03;;;3.45;;
11496;SDS011;5805;51.542;7.230;2022-08-25T12:47:06;4.28;;;3.28;;
11496;SDS011;5805;51.542;7.230;2022-08-25T12:49:48;4.70;;;3.08;;
11496;SDS011;5805;51.542;7.230;2022-08-25T12:52:14;7.65;;;3.00;;
11496;SDS011;5805;51.542;7.230;2022-08-25T12:54:45;5.28;;;3.42;;
11496;SDS011;5805;51.542;7.230;2022-08-25T12:57:20;3.70;;;3.15;;
11496;SDS011;5805;51.542;7.230;2022-08-25T12:59:51;3.28;;;2.92;;
11496;SDS011;5805;51.542;7.230;2022-08-25T13:02:35;4.65;;;3.13;;
11496;SDS011;5805;51.542;7.230;2022-08-25T13:05:16;4.15;;;3.03;;
11496;SDS011;5805;51.542;7.230;2022-08-25T13:08:40;5.18;;;2.88;;
11496;SDS011;5805;51.542;7.230;2022-08-25T13:11:28;3.42;;;3.13;;
11496;SDS011;5805;51.542;7.230;2022-08-25T13:13:59;3.95;;;3.47;;
11496;SDS011;5805;51.542;7.230;2022-08-25T13:16:30;4.97;;;3.50;;
11496;SDS011;5805;51.542;7.230;2022-08-25T13:18:56;4.38;;;3.03;;
11496;SDS011;5805;51.542;7.230;2022-08-25T13:21:24;6.00;;;3.45;;
11496;SDS011;5805;51.542;7.230;2022-08-25T13:23:55;4.97;;;3.17;;
11496;SDS011;5805;51.542;7.230;2022-08-25T13:26:23;3.95;;;3.50;;
11496;SDS011;5805;51.542;7.230;2022-08-25T13:28:54;5.05;;;3.28;;
11496;SDS011;5805;51.542;7.230;2022-08-25T13:31:24;3.65;;;3.22;;
11496;SDS011;5805;51.542;7.230;2022-08-25T13:33:50;5.53;;;2.97;;
11496;SDS011;5805;51.542;7.230;2022-08-25T13:36:17;4.07;;;3.10;;
11496;SDS011;5805;51.542;7.230;2022-08-25T13:38:45;4.90;;;2.92;;
11496;SDS011;5805;51.542;7.230;2022-08-25T13:41:15;7.00;;;2.97;;
11496;SDS011;5805;51.542;7.230;2022-08-25T13:43:43;6.03;;;3.22;;
11496;SDS011;5805;51.542;7.230;2022-08-25T13:46:10;4.57;;;3.03;;
11496;SDS011;5805;51.542;7.230;2022-08-25T13:48:36;4.35;;;3.30;;
11496;SDS011;5805;51.542;7.230;2022-08-25T13:51:05;3.22;;;2.90;;
11496;SDS011;5805;51.542;7.230;2022-08-25T13:53:33;6.25;;;3.13;;
11496;SDS011;5805;51.542;7.230;2022-08-25T13:55:59;6.45;;;3.20;;
11496;SDS011;5805;51.542;7.230;2022-08-25T13:58:27;6.20;;;3.05;;
11496;SDS011;5805;51.542;7.230;2022-08-25T14:01:02;3.92;;;3.15;;
11496;SDS011;5805;51.542;7.230;2022-08-25T14:03:36;3.45;;;3.15;;
11496;SDS011;5805;51.542;7.230;2022-08-25T14:06:04;5.97;;;2.97;;
11496;SDS011;5805;51.542;7.230;2022-08-25T14:08:33;3.25;;;2.95;;
11496;SDS011;5805;51.542;7.230;2022-08-25T14:11:06;4.90;;;3.00;;
11496;SDS011;5805;51.542;7.230;2022-08-25T14:13:34;3.05;;;2.75;;
11496;SDS011;5805;51.542;7.230;2022-08-25T14:16:08;6.72;;;3.17;;
11496;SDS011;5805;51.542;7.230;2022-08-25T14:18:37;3.13;;;2.83;;
11496;SDS011;5805;51.542;7.230;2022-08-25T14:21:06;5.10;;;3.00;;
11496;SDS011;5805;51.542;7.230;2022-08-25T14:23:34;4.90;;;2.90;;
11496;SDS011;5805;51.542;7.230;2022-08-25T14:26:02;3.25;;;2.95;;
11496;SDS011;5805;51.542;7.230;2022-08-25T14:28:28;3.58;;;3.03;;
11496;SDS011;5805;51.542;7.230;2022-08-25T14:30:55;5.25;;;2.88;;
11496;SDS011;5805;51.542;7.230;2022-08-25T14:33:25;4.78;;;2.90;;
11496;SDS011;5805;51.542;7.230;2022-08-25T14:35:54;3.58;;;3.17;;
11496;SDS011;5805;51.542;7.230;2022-08-25T14:38:23;5.07;;;3.00;;
11496;SDS011;5805;51.542;7.230;2022-08-25T14:40:49;4.00;;;3.22;;
11496;SDS011;5805;51.542;7.230;2022-08-25T14:43:14;4.55;;;3.30;;
11496;SDS011;5805;51.542;7.230;2022-08-25T14:45:41;4.38;;;3.00;;
11496;SDS011;5805;51.542;7.230;2022-08-25T14:48:11;3.15;;;2.83;;
11496;SDS011;5805;51.542;7.230;2022-08-25T14:50:41;5.20;;;2.90;;
11496;SDS011;5805;51.542;7.230;2022-08-25T14:53:09;4.82;;;3.10;;
11496;SDS011;5805;51.542;7.230;2022-08-25T14:55:35;6.32;;;3.08;;
11496;SDS011;5805;51.542;7.230;2022-08-25T14:58:01;5.55;;;2.95;;
11496;SDS011;5805;51.542;7.230;2022-08-25T15:00:27;5.18;;;2.90;;
11496;SDS011;5805;51.542;7.230;2022-08-25T15:02:53;5.15;;;3.10;;
11496;SDS011;5805;51.542;7.230;2022-08-25T15:05:20;3.70;;;3.00;;
11496;SDS011;5805;51.542;7.230;2022-08-25T15:07:48;3.58;;;3.03;;
11496;SDS011;5805;51.542;7.230;2022-08-25T15:10:15;3.08;;;2.78;;
11496;SDS011;5805;51.542;7.230;2022-08-25T15:12:41;3.42;;;3.13;;
11496;SDS011;5805;51.542;7.230;2022-08-25T15:15:07;4.35;;;2.92;;
11496;SDS011;5805;51.542;7.230;2022-08-25T15:17:33;3.92;;;3.13;;
11496;SDS011;5805;51.542;7.230;2022-08-25T15:19:59;3.63;;;2.92;;